Latest Weather Observations for Lucas Heights

IDN60801

Issued at 4:35 pm EST Tuesday 2 September 2014 (issued every 30 minutes, with the page automatically refreshed every 10 minutes)

About weather observations | Map of weather stations | Latest weather observations for NSW | Other Formats
Station Details ID: 066023 Name: LUCAS HEIGHTS AWS Lat: -34.05 Lon: 150.98 Height: 140.0 m
Data from the previous 72 hours. | See also: Recent months for locations in New South Wales
Date/Time
EST
Temp
°C
App
Temp
°C
Dew
Point
Rel
Hum
%
Delta-T
°C
Wind Press
QNH
hPa
Press
MSL
hPa
Rain
since 9 am
mm
Dir
 
Spd
km/h
Gust
km/h
Spd
kts
Gust
kts
02/04:15pm 12.3 6.9 6.3 67 2.9 WSW 24 37 13 20 1008.8 - 0.2
02/04:00pm 12.8 8.2 6.6 66 3.0 SW 20 33 11 18 1008.5 - 0.2
02/03:45pm 12.8 9.3 7.1 68 2.8 SW 15 22 8 12 1008.4 - 0.2
02/03:30pm 12.4 8.4 6.7 68 2.7 SSW 17 28 9 15 1008.3 - 0.2
02/03:15pm 12.6 7.6 6.5 66 2.9 SSW 22 32 12 17 1008.3 - 0.2
02/03:00pm 12.7 7.8 6.7 67 2.9 SSW 22 32 12 17 1008.1 - 0.2
02/02:45pm 13.1 7.6 7.5 69 2.8 S 26 43 14 23 1008.0 - 0.2
02/02:30pm 12.8 7.4 8.1 73 2.3 S 26 46 14 25 1007.9 - 0.2
02/02:15pm 13.3 9.0 7.9 70 2.7 SSE 20 32 11 17 1007.8 - 0.2
02/02:00pm 14.7 9.4 6.9 59 3.8 SSW 24 35 13 19 1007.7 - 0.2
02/01:45pm 14.6 10.5 8.0 64 3.3 SW 19 37 10 20 1007.8 - 0.2
02/01:30pm 13.9 10.7 8.6 70 2.7 SSW 15 24 8 13 1007.9 - 0.2
02/01:15pm 13.7 10.4 8.1 69 2.8 SW 15 24 8 13 1008.2 - 0.2
02/01:00pm 14.0 10.4 8.3 68 2.9 SSW 17 26 9 14 1008.2 - 0.0
02/12:45pm 13.4 8.8 8.0 70 2.7 SW 22 30 12 16 1008.3 - 0.0
02/12:30pm 13.9 9.0 6.7 62 3.5 WSW 22 33 12 18 1008.5 - 0.0
02/12:15pm 14.6 9.6 6.3 57 4.0 WSW 22 32 12 17 1008.5 - 0.0
02/12:00pm 15.0 9.9 6.2 55 4.3 WSW 22 35 12 19 1008.5 - 0.0
02/11:45am 15.6 10.6 6.6 55 4.4 SW 22 37 12 20 1008.5 - 0.0
02/11:30am 15.3 10.7 6.5 55 4.3 SW 20 33 11 18 1008.7 - 0.0
02/11:15am 15.4 10.3 6.0 53 4.6 SW 22 30 12 16 1008.9 - 0.0
02/11:00am 16.1 11.8 6.9 54 4.6 SSW 19 30 10 16 1008.9 - 0.0
02/10:45am 15.2 11.5 6.5 56 4.3 SW 15 22 8 12 1009.2 - 0.0
02/10:30am 15.1 11.2 7.0 58 4.0 SW 17 26 9 14 1009.2 - 0.0
02/10:15am 14.4 10.8 6.8 60 3.7 SW 15 22 8 12 1009.4 - 0.0
02/10:00am 14.5 10.5 6.6 59 3.9 SW 17 30 9 16 1009.4 - 0.0
02/09:45am 15.2 10.8 6.5 56 4.3 WSW 19 24 10 13 1009.3 - 0.0
02/09:30am 15.9 12.0 7.1 56 4.4 SW 17 28 9 15 1009.2 - 0.0
02/09:15am 15.4 11.9 7.4 59 4.0 WSW 15 20 8 11 1009.2 - 0.0
02/09:00am 14.4 10.9 7.2 62 3.6 WSW 15 22 8 12 1009.3 - 0.0
02/08:45am 14.2 10.3 7.0 62 3.5 WSW 17 24 9 13 1009.5 - 0.0
02/08:30am 14.2 10.3 7.1 62 3.5 WSW 17 28 9 15 1009.5 - 0.0
02/08:15am 14.2 10.3 6.9 61 3.6 W 17 26 9 14 1009.6 - 0.0
02/08:00am 14.1 10.8 6.5 60 3.7 W 13 19 7 10 1009.7 - 0.0
02/07:45am 14.3 10.6 6.4 59 3.8 W 15 19 8 10 1009.7 - 0.0
02/07:30am 14.3 10.6 6.2 58 3.9 W 15 19 8 10 1009.6 - 0.0
02/07:15am 14.5 11.2 6.2 57 4.0 W 13 15 7 8 1009.5 - 0.0
02/07:00am 14.5 10.1 6.4 58 3.9 W 19 35 10 19 1009.4 - 0.0
02/06:45am 14.1 10.4 6.4 60 3.7 WSW 15 30 8 16 1009.2 - 0.0
02/06:30am 14.0 9.4 6.4 60 3.7 WSW 20 30 11 16 1009.1 - 0.0
02/06:15am 14.0 9.4 6.3 60 3.7 WSW 20 28 11 15 1008.9 - 0.0
02/06:00am 14.0 8.2 6.3 60 3.7 WSW 26 35 14 19 1008.9 - 0.0
02/05:45am 14.1 8.3 6.3 59 3.8 WSW 26 35 14 19 1009.0 - 0.0
02/05:30am 14.1 8.0 6.4 60 3.7 WSW 28 35 15 19 1008.9 - 0.0
02/05:15am 14.2 8.1 6.4 59 3.8 WSW 28 33 15 18 1008.9 - 0.0
02/05:00am 14.3 8.9 6.4 59 3.8 SW 24 33 13 18 1008.9 - 0.0
02/04:45am 14.4 9.0 6.5 59 3.8 SW 24 33 13 18 1008.9 - 0.0
02/04:30am 14.6 9.3 6.6 58 3.9 SW 24 33 13 18 1008.9 - 0.0
02/04:15am 14.7 9.4 6.7 58 3.9 SW 24 33 13 18 1008.9 - 0.0
02/04:00am 14.9 9.6 6.7 58 4.0 SW 24 35 13 19 1008.8 - 0.0
02/03:45am 15.0 9.7 6.8 58 4.0 SW 24 37 13 20 1008.8 - 0.0
02/03:30am 14.7 10.1 6.7 58 3.9 SW 20 33 11 18 1008.9 - 0.0
02/03:15am 14.8 10.2 6.5 57 4.0 WSW 20 26 11 14 1009.0 - 0.0
02/03:00am 15.4 11.5 6.9 57 4.2 W 17 22 9 12 1008.9 - 0.0
02/02:45am 15.9 11.9 6.8 54 4.5 W 17 22 9 12 1008.9 - 0.0
02/02:30am 16.0 12.0 6.8 54 4.6 W 17 24 9 13 1009.0 - 0.0
02/02:15am 15.8 12.2 6.8 55 4.4 NW 15 19 8 10 1009.0 - 0.0
02/02:00am 15.6 12.0 6.6 55 4.4 NW 15 22 8 12 1009.0 - 0.0
02/01:45am 15.6 12.0 6.6 55 4.4 NW 15 19 8 10 1009.2 - 0.0
02/01:30am 15.8 11.8 6.7 54 4.5 NW 17 19 9 10 1009.3 - 0.0
02/01:15am 15.4 11.5 6.9 57 4.2 NNW 17 20 9 11 1009.5 - 0.0
02/01:00am 15.1 11.9 6.9 58 4.0 NNW 13 19 7 10 1009.6 - 0.0
02/12:45am 15.3 12.2 7.1 58 4.1 NNW 13 19 7 10 1009.8 - 0.0
02/12:30am 15.0 11.1 6.9 58 4.0 NNW 17 24 9 13 1009.9 - 0.0
02/12:15am 14.7 11.0 6.5 58 4.0 NNW 15 22 8 12 1010.1 - 0.0
02/12:00am 15.3 11.3 6.8 57 4.2 NNW 17 22 9 12 1010.3 - 0.0
 
Date/Time
EST
Temp
°C
App
Temp
°C
Dew
Point
Rel
Hum
%
Delta-T
°C
Wind Press
QNH
hPa
Press
MSL
hPa
Rain
since 9 am
mm
Dir
 
Spd
km/h
Gust
km/h
Spd
kts
Gust
kts
01/11:45pm 15.9 12.0 6.9 55 4.5 NNW 17 22 9 12 1010.6 - 0.0
01/11:30pm 15.6 11.7 7.1 57 4.2 NNW 17 22 9 12 1010.7 - 0.0
01/11:15pm 15.2 11.3 7.0 58 4.1 NNW 17 19 9 10 1010.8 - 0.0
01/11:00pm 15.6 11.6 6.8 56 4.3 NNW 17 19 9 10 1010.9 - 0.0
01/10:45pm 16.0 12.7 6.6 53 4.6 NNW 13 19 7 10 1011.0 - 0.0
01/10:30pm 16.4 13.1 6.6 52 4.8 NNW 13 20 7 11 1011.1 - 0.0
01/10:15pm 17.0 13.3 6.5 50 5.2 NNW 15 22 8 12 1011.1 - 0.0
01/10:00pm 17.2 13.2 6.5 49 5.3 NNW 17 24 9 13 1011.2 - 0.0
01/09:45pm 17.6 13.0 6.7 48 5.4 NW 20 26 11 14 1011.4 - 0.0
01/09:30pm 17.0 12.1 6.7 50 5.1 WNW 22 30 12 16 1011.5 - 0.0
01/09:15pm 16.5 12.1 6.4 51 5.0 WNW 19 26 10 14 1011.5 - 0.0
01/09:00pm 15.5 11.8 6.1 53 4.6 WNW 15 20 8 11 1011.6 - 0.0
01/08:45pm 16.7 13.3 6.0 49 5.2 W 13 19 7 10 1011.7 - 0.0
01/08:30pm 17.6 13.1 6.2 47 5.6 WNW 19 26 10 14 1011.8 - 0.0
01/08:15pm 17.4 12.0 6.5 48 5.4 WNW 24 30 13 16 1011.8 - 0.0
01/08:00pm 17.0 12.3 7.7 54 4.7 WNW 22 28 12 15 1011.7 - 0.0
01/07:45pm 15.8 13.0 8.7 62 3.6 WNW 13 20 7 11 1011.5 - 0.0
01/07:30pm 16.1 14.3 9.6 65 3.4 WNW 9 19 5 10 1011.5 - 0.0
01/07:15pm 15.6 14.4 10.2 70 2.9 NW 7 22 4 12 1011.4 - 0.0
01/07:00pm 15.7 14.5 10.3 70 2.9 N 7 13 4 7 1011.4 - 0.0
01/06:45pm 15.9 14.4 10.4 70 2.9 N 9 13 5 7 1011.3 - 0.0
01/06:30pm 16.1 14.9 10.2 68 3.1 NNE 7 13 4 7 1011.2 - 0.0
01/06:15pm 16.7 15.5 10.4 66 3.4 NE 7 9 4 5 1011.1 - 0.0
01/06:00pm 17.1 16.1 10.4 64 3.6 NE 6 13 3 7 1010.9 - 0.0
01/05:45pm 17.6 16.4 10.4 62 3.9 ENE 7 13 4 7 1010.9 - 0.0
01/05:30pm 18.4 16.9 10.4 59 4.3 ENE 9 15 5 8 1010.8 - 0.0
01/05:15pm 18.9 16.2 10.4 57 4.6 ENE 15 19 8 10 1010.7 - 0.0
01/05:00pm 19.4 17.4 10.3 55 4.9 ENE 11 15 6 8 1010.7 - 0.0
01/04:45pm 19.8 18.5 10.0 53 5.3 ENE 7 11 4 6 1010.7 - 0.0
01/04:30pm 20.3 18.6 9.8 51 5.7 ENE 9 13 5 7 1010.6 - 0.0
01/04:15pm 21.0 18.6 8.5 44 6.6 NE 11 15 6 8 1010.6 - 0.0
01/04:00pm 21.2 18.7 8.3 43 6.8 - 11 15 6 8 1010.7 - 0.0
01/03:45pm 21.1 19.0 8.1 43 6.8 NNW 9 15 5 8 1010.9 - 0.0
01/03:30pm 21.1 18.5 7.6 41 7.0 NNW 11 19 6 10 1010.9 - 0.0
01/03:15pm 21.2 19.0 7.8 42 7.0 N 9 15 5 8 1010.9 - 0.0
01/03:00pm 21.7 19.4 7.5 40 7.4 NNW 9 15 5 8 1010.9 - 0.0
01/02:45pm 21.4 19.1 7.5 40 7.2 NNW 9 15 5 8 1011.2 - 0.0
01/02:30pm 21.1 19.4 7.7 42 7.0 NW 6 13 3 7 1011.4 - 0.0
01/02:15pm 20.8 18.2 7.7 42 6.8 NW 11 19 6 10 1011.6 - 0.0
01/02:00pm 21.0 18.0 7.8 42 6.9 NW 13 22 7 12 1011.9 - 0.0
01/01:45pm 21.5 18.9 7.8 41 7.2 WNW 11 22 6 12 1012.1 - 0.0
01/01:30pm 21.3 18.3 7.6 41 7.1 WNW 13 24 7 13 1012.3 - 0.0
01/01:15pm 21.3 18.6 9.1 45 6.5 NW 13 22 7 12 1012.6 - 0.0
01/01:00pm 20.7 18.9 9.5 48 6.0 NW 9 17 5 9 1012.8 - 0.0
01/12:45pm 20.7 18.5 9.5 48 6.0 NW 11 22 6 12 1013.2 - 0.0
01/12:30pm 20.1 17.0 8.9 48 5.9 WNW 15 26 8 14 1013.6 - 0.0
01/12:15pm 19.9 17.1 8.6 48 5.9 WNW 13 22 7 12 1013.8 - 0.0
01/12:00pm 19.6 16.8 8.7 49 5.7 WNW 13 20 7 11 1014.0 - 0.0
01/11:45am 19.2 17.0 9.4 53 5.2 NW 11 17 6 9 1014.2 - 0.0
01/11:30am 18.1 15.9 9.2 56 4.7 NW 11 15 6 8 1014.5 - 0.0
01/11:15am 18.4 16.2 9.4 55 4.8 NW 11 19 6 10 1014.7 - 0.0
01/11:00am 18.2 16.5 10.0 58 4.4 NW 9 19 5 10 1014.9 - 0.0
01/10:45am 17.4 15.7 9.9 61 4.0 NW 9 15 5 8 1015.3 - 0.0
01/10:30am 17.1 15.7 10.8 66 3.4 NW 9 15 5 8 1015.7 - 0.0
01/10:15am 16.1 14.8 11.4 73 2.5 NW 9 13 5 7 1015.9 - 0.0
01/10:00am 15.3 13.7 11.7 79 2.0 NW 11 17 6 9 1016.2 - 0.0
01/09:45am 14.8 13.8 12.3 85 1.4 WNW 9 15 5 8 1016.5 - 0.0
01/09:30am 13.9 12.4 12.0 88 1.0 WNW 11 15 6 8 1016.7 - 0.0
01/09:15am 13.4 12.6 11.8 90 0.9 WNW 7 11 4 6 1016.9 - 0.0
01/09:00am 12.7 11.0 11.3 91 0.7 W 11 13 6 7 1017.0 - 0.2
01/08:45am 12.0 10.2 10.9 93 0.6 W 11 15 6 8 1017.2 - 0.2
01/08:30am 11.3 9.3 10.3 94 0.5 W 11 19 6 10 1017.2 - 0.2
01/08:15am 11.2 8.8 10.2 94 0.5 W 13 19 7 10 1017.3 - 0.2
01/08:00am 10.5 7.9 9.5 93 0.5 W 13 19 7 10 1017.2 - 0.2
01/07:45am 10.0 6.9 9.0 93 0.5 W 15 17 8 9 1017.1 - 0.2
01/07:30am 9.7 6.9 8.6 93 0.5 W 13 19 7 10 1016.9 - 0.2
01/07:15am 9.4 6.6 8.4 93 0.5 W 13 17 7 9 1016.8 - 0.0
01/07:00am 9.4 7.7 8.3 93 0.5 W 7 15 4 8 1016.8 - 0.0
01/06:45am 9.6 7.6 8.5 93 0.5 W 9 13 5 7 1016.7 - 0.0
01/06:30am 9.7 7.7 8.5 92 0.6 WSW 9 15 5 8 1016.7 - 0.0
01/06:15am 10.0 7.7 8.9 93 0.5 WSW 11 15 6 8 1016.6 - 0.0
01/06:00am 10.3 8.1 9.2 93 0.6 WSW 11 15 6 8 1016.5 - 0.0
01/05:45am 10.7 8.2 9.6 93 0.6 WSW 13 17 7 9 1016.3 - 0.0
01/05:30am 11.1 8.3 10.0 93 0.6 W 15 19 8 10 1016.3 - 0.0
01/05:15am 10.7 7.8 9.5 92 0.6 W 15 19 8 10 1016.2 - 0.0
01/05:00am 10.9 8.0 9.8 93 0.6 W 15 19 8 10 1016.1 - 0.0
01/04:45am 10.1 6.3 9.0 93 0.5 WSW 19 20 10 11 1016.0 - 0.0
01/04:30am 9.7 6.2 8.6 93 0.5 WSW 17 19 9 10 1016.0 - 0.0
01/04:15am 10.3 7.3 9.2 93 0.6 W 15 17 8 9 1016.0 - 0.0
01/04:00am 9.6 6.8 8.4 92 0.6 W 13 15 7 8 1016.0 - 0.0
01/03:45am 8.9 6.3 7.8 93 0.5 WSW 11 13 6 7 1016.0 - 0.0
01/03:30am 8.5 5.8 7.3 92 0.6 WSW 11 13 6 7 1016.0 - 0.0
01/03:15am 8.3 5.5 7.1 92 0.6 WSW 11 15 6 8 1016.1 - 0.0
01/03:00am 8.6 5.5 7.4 92 0.6 W 13 15 7 8 1016.4 - 0.0
01/02:45am 8.8 6.2 7.6 92 0.6 W 11 13 6 7 1016.5 - 0.0
01/02:30am 8.8 6.2 7.6 92 0.6 W 11 15 6 8 1016.7 - 0.0
01/02:15am 8.9 6.7 7.7 92 0.6 WNW 9 13 5 7 1016.8 - 0.0
01/02:00am 8.8 6.5 7.6 92 0.6 WNW 9 11 5 6 1016.9 - 0.0
01/01:45am 8.9 6.7 7.7 92 0.6 NW 9 11 5 6 1017.1 - 0.0
01/01:30am 9.2 7.0 8.0 92 0.6 NW 9 13 5 7 1017.2 - 0.0
01/01:15am 9.6 7.9 8.3 92 0.6 WNW 7 9 4 5 1017.4 - 0.0
01/01:00am 9.6 7.9 8.3 92 0.6 NW 7 9 4 5 1017.5 - 0.0
01/12:45am 9.3 7.5 8.0 92 0.6 NW 7 9 4 5 1017.6 - 0.0
01/12:30am 9.1 7.3 7.8 92 0.6 WNW 7 9 4 5 1017.8 - 0.0
01/12:15am 9.1 7.2 7.6 90 0.7 W 7 9 4 5 1018.0 - 0.0
01/12:00am 9.3 7.5 8.0 92 0.6 W 7 11 4 6 1018.1 - 0.0
 
Date/Time
EST
Temp
°C
App
Temp
°C
Dew
Point
Rel
Hum
%
Delta-T
°C
Wind Press
QNH
hPa
Press
MSL
hPa
Rain
since 9 am
mm
Dir
 
Spd
km/h
Gust
km/h
Spd
kts
Gust
kts
31/11:45pm 9.6 7.5 8.3 92 0.6 W 9 11 5 6 1018.4 - 0.0
31/11:30pm 10.0 8.0 8.6 91 0.7 W 9 11 5 6 1018.4 - 0.0
31/11:15pm 9.9 7.9 8.6 92 0.6 W 9 11 5 6 1018.5 - 0.0
31/11:00pm 10.0 8.4 8.6 91 0.7 W 7 9 4 5 1018.4 - 0.0
31/10:45pm 10.0 8.5 8.6 91 0.7 W 6 7 3 4 1018.4 - 0.0
31/10:30pm 10.2 8.8 8.8 91 0.7 WNW 6 7 3 4 1018.5 - 0.0
31/10:15pm 10.4 9.4 8.9 90 0.7 W 4 6 2 3 1018.7 - 0.0
31/10:00pm 11.2 10.4 9.7 90 0.8 WSW 4 6 2 3 1018.7 - 0.0
31/09:45pm 11.3 10.5 9.8 90 0.8 SW 4 6 2 3 1018.6 - 0.0
31/09:30pm 10.9 10.0 9.3 90 0.8 S 4 6 2 3 1018.6 - 0.0
31/09:15pm 11.2 10.4 9.5 89 0.9 ESE 4 6 2 3 1018.6 - 0.0
31/09:00pm 11.7 10.6 10.0 89 0.9 E 6 7 3 4 1018.6 - 0.0
31/08:45pm 11.9 10.8 10.1 89 0.9 E 6 9 3 5 1018.7 - 0.0
31/08:30pm 12.2 11.2 10.3 88 1.0 E 6 7 3 4 1018.7 - 0.0
31/08:15pm 12.3 11.3 10.3 87 1.0 E 6 9 3 5 1018.7 - 0.0
31/08:00pm 12.8 11.0 10.7 87 1.1 E 11 13 6 7 1018.5 - 0.0
31/07:45pm 13.0 11.2 10.9 87 1.1 E 11 13 6 7 1018.4 - 0.0
31/07:30pm 13.2 11.8 11.0 86 1.2 E 9 13 5 7 1018.3 - 0.0
31/07:15pm 13.1 12.0 10.6 85 1.3 E 7 11 4 6 1018.2 - 0.0
31/07:00pm 13.5 12.4 10.8 84 1.4 E 7 13 4 7 1018.0 - 0.0
31/06:45pm 13.9 12.6 11.1 83 1.5 E 9 15 5 8 1017.7 - 0.0
31/06:30pm 14.2 12.1 11.1 81 1.7 E 13 17 7 9 1017.6 - 0.0
31/06:15pm 14.5 12.4 11.2 80 1.8 E 13 15 7 8 1017.6 - 0.0
31/06:00pm 14.7 12.6 11.0 78 2.0 E 13 17 7 9 1017.5 - 0.0
31/05:45pm 15.1 12.9 10.9 76 2.2 E 13 19 7 10 1017.5 - 0.0
31/05:30pm 15.5 13.2 10.6 72 2.6 ESE 13 19 7 10 1017.4 - 0.0
31/05:15pm 16.0 13.8 10.7 71 2.8 ESE 13 19 7 10 1017.3 - 0.0
31/05:00pm 16.4 13.8 10.8 69 3.0 ESE 15 20 8 11 1017.3 - 0.0
31/04:45pm 16.7 14.2 10.9 68 3.1 E 15 20 8 11 1017.3 - 0.0
31/04:30pm 17.0 14.5 11.0 68 3.2 ESE 15 20 8 11 1017.3 - 0.0
31/04:15pm 17.4 15.0 11.3 67 3.3 ESE 15 19 8 10 1017.3 - 0.0
31/04:00pm 17.6 15.6 11.6 68 3.3 ESE 13 19 7 10 1017.3 - 0.0
31/03:45pm 17.8 15.5 11.7 67 3.4 ESE 15 22 8 12 1017.3 - 0.0
31/03:30pm 18.0 15.7 11.6 66 3.5 ESE 15 22 8 12 1017.4 - 0.0
31/03:15pm 18.2 16.3 11.9 66 3.5 ESE 13 19 7 10 1017.4 - 0.0
31/03:00pm 18.1 15.8 11.7 66 3.5 E 15 20 8 11 1017.4 - 0.0
31/02:45pm 18.7 17.2 11.8 64 3.8 E 11 19 6 10 1017.5 - 0.0
31/02:30pm 19.5 17.4 12.4 63 4.0 ENE 15 24 8 13 1017.6 - 0.0
31/02:15pm 19.5 18.1 12.1 62 4.1 ENE 11 15 6 8 1017.7 - 0.0
31/02:00pm 19.3 17.9 10.8 58 4.6 NE 9 17 5 9 1017.9 - 0.0
31/01:45pm 19.6 18.5 9.9 53 5.2 E 6 9 3 5 1018.0 - 0.0
31/01:30pm 19.7 18.6 9.8 52 5.3 SE 6 9 3 5 1018.1 - 0.0
31/01:15pm 19.9 19.0 10.6 55 5.1 N 6 13 3 7 1018.4 - 0.0
31/01:00pm 18.9 17.7 10.4 57 4.6 W 7 13 4 7 1018.7 - 0.0
31/12:45pm 18.6 17.5 9.9 57 4.7 SSW 6 11 3 6 1018.9 - 0.0
31/12:30pm 19.0 18.2 11.2 60 4.3 SSW 6 11 3 6 1019.2 - 0.0
31/12:15pm 18.0 16.9 10.5 61 4.0 SW 7 11 4 6 1019.5 - 0.0
31/12:00pm 18.1 16.7 11.0 63 3.9 WSW 9 17 5 9 1019.7 - 0.0
31/11:45am 17.7 16.2 10.6 63 3.8 SSW 9 15 5 8 1019.9 - 0.0
31/11:30am 17.8 17.0 11.1 65 3.6 WSW 6 13 3 7 1020.1 - 0.0
31/11:15am 16.9 16.0 10.8 67 3.3 SSE 6 13 3 7 1020.3 - 0.0
31/11:00am 17.0 16.2 10.9 67 3.3 S 6 11 3 6 1020.4 - 0.0
31/10:45am 16.9 15.4 10.7 67 3.3 WSW 9 17 5 9 1020.6 - 0.0
31/10:30am 16.7 14.9 10.7 67 3.2 WSW 11 19 6 10 1020.8 - 0.0
31/10:15am 16.5 14.7 10.7 68 3.1 SW 11 19 6 10 1020.9 - 0.0
31/10:00am 16.0 13.7 10.5 70 2.9 WSW 13 19 7 10 1021.0 - 0.0
31/09:45am 15.7 13.4 10.5 71 2.8 SW 13 20 7 11 1021.1 - 0.0
31/09:30am 15.1 12.4 10.2 72 2.6 WSW 15 20 8 11 1021.2 - 0.0
31/09:15am 14.7 12.0 10.2 74 2.4 SW 15 22 8 12 1021.3 - 0.0
31/09:00am 14.1 11.3 9.9 76 2.2 SW 15 22 8 12 1021.4 - 0.4
31/08:45am 13.4 10.1 9.7 78 1.9 SW 17 30 9 16 1021.5 - 0.4
31/08:30am 13.0 9.2 9.8 81 1.7 SW 20 28 11 15 1021.4 - 0.4
31/08:15am 12.6 9.8 10.0 84 1.3 SW 15 22 8 12 1021.4 - 0.4
31/08:00am 11.6 9.0 9.4 86 1.1 SW 13 22 7 12 1021.4 - 0.4
31/07:45am 10.8 7.7 8.8 87 1.0 SW 15 19 8 10 1021.3 - 0.4
31/07:30am 10.6 7.4 8.6 87 1.0 SW 15 20 8 11 1021.3 - 0.4
31/07:15am 10.5 7.0 8.6 88 0.9 WSW 17 20 9 11 1021.2 - 0.4
31/07:00am 10.2 7.0 8.3 88 0.9 SW 15 19 8 10 1021.2 - 0.4
31/06:45am 9.9 7.0 8.0 88 0.9 SW 13 17 7 9 1021.1 - 0.4
31/06:30am 9.8 6.8 7.9 88 0.9 SW 13 19 7 10 1021.0 - 0.4
31/06:15am 9.8 6.8 7.8 87 1.0 SW 13 15 7 8 1020.9 - 0.4
31/06:00am 9.9 7.7 7.8 87 1.0 SSW 9 13 5 7 1020.8 - 0.4
31/05:45am 10.3 7.4 8.2 87 1.0 SW 13 20 7 11 1020.8 - 0.4
31/05:30am 10.4 5.9 8.4 87 1.0 SW 22 26 12 14 1020.7 - 0.4
31/05:15am 10.3 5.0 8.4 88 0.9 SW 26 30 14 16 1020.7 - 0.4
31/05:00am 9.8 5.2 8.0 88 0.9 SW 22 28 12 15 1020.7 - 0.4
31/04:45am 9.6 5.3 7.7 88 0.9 SW 20 26 11 14 1020.6 - 0.4
31/04:30am 9.7 5.6 7.7 87 1.0 SW 19 26 10 14 1020.6 - 0.4
31/04:15am 9.8 6.1 7.8 87 1.0 SW 17 20 9 11 1020.6 - 0.4
31/04:00am 10.1 7.2 8.2 88 0.9 SW 13 20 7 11 1020.7 - 0.4
31/03:45am 10.0 5.7 8.0 87 1.0 SW 20 26 11 14 1020.7 - 0.4
31/03:30am 9.9 4.5 8.0 88 0.9 SW 26 30 14 16 1020.8 - 0.4
31/03:15am 10.0 4.2 8.1 88 0.9 WSW 28 33 15 18 1020.8 - 0.4
31/03:00am 9.9 5.3 8.0 88 0.9 SW 22 33 12 18 1020.8 - 0.4
31/02:45am 9.9 6.6 7.9 87 1.0 SSW 15 19 8 10 1020.8 - 0.4
31/02:30am 10.0 6.7 7.9 87 1.0 SSW 15 19 8 10 1020.9 - 0.4
31/02:15am 10.3 7.4 8.3 87 1.0 SSW 13 19 7 10 1021.0 - 0.4
31/02:00am 10.6 7.8 8.5 87 1.0 SSW 13 19 7 10 1021.1 - 0.4
31/01:45am 10.9 8.2 8.8 87 1.0 SSW 13 19 7 10 1021.3 - 0.4
31/01:30am 10.8 8.0 8.6 86 1.1 SSW 13 19 7 10 1021.4 - 0.4
31/01:15am 10.8 7.9 8.3 84 1.2 SW 13 17 7 9 1021.5 - 0.4
31/01:00am 11.8 9.1 9.1 83 1.4 SSW 13 22 7 12 1021.6 - 0.4
31/12:45am 12.4 9.6 9.9 85 1.3 SSW 15 22 8 12 1021.6 - 0.4
31/12:30am 12.2 9.3 9.6 84 1.3 S 15 19 8 10 1021.7 - 0.4
31/12:15am 12.2 9.3 9.6 84 1.3 S 15 22 8 12 1021.8 - 0.4
31/12:00am 12.3 9.1 9.8 85 1.3 S 17 28 9 15 1021.9 - 0.4
 
Date/Time
EST
Temp
°C
App
Temp
°C
Dew
Point
Rel
Hum
%
Delta-T
°C
Wind Press
QNH
hPa
Press
MSL
hPa
Rain
since 9 am
mm
Dir
 
Spd
km/h
Gust
km/h
Spd
kts
Gust
kts
30/11:45pm 12.2 8.9 9.6 84 1.3 S 17 28 9 15 1022.0 - 0.4
30/11:30pm 12.0 9.0 9.4 84 1.3 SSW 15 24 8 13 1022.1 - 0.4
30/11:15pm 11.9 9.2 9.1 83 1.4 SSW 13 20 7 11 1022.2 - 0.4
30/11:00pm 11.9 8.5 9.0 82 1.5 SSW 17 20 9 11 1022.2 - 0.4
30/10:45pm 12.1 9.0 9.0 81 1.6 SW 15 19 8 10 1022.2 - 0.4
30/10:30pm 12.6 10.0 9.3 80 1.7 SSW 13 19 7 10 1022.3 - 0.4
30/10:15pm 12.7 10.1 9.4 80 1.7 SSW 13 19 7 10 1022.4 - 0.4
30/10:00pm 12.8 9.8 9.4 80 1.7 SSW 15 22 8 12 1022.4 - 0.4
30/09:45pm 12.8 9.8 9.4 80 1.7 SSW 15 22 8 12 1022.5 - 0.4
30/09:30pm 12.9 9.9 9.4 79 1.8 SSW 15 22 8 12 1022.6 - 0.4
30/09:15pm 13.0 9.3 9.4 79 1.8 SSW 19 28 10 15 1022.6 - 0.4
30/09:00pm 13.1 9.4 9.5 79 1.8 SSW 19 30 10 16 1022.7 - 0.4
30/08:45pm 13.0 9.3 9.6 80 1.7 SSW 19 28 10 15 1022.7 - 0.4
30/08:30pm 12.9 9.2 9.6 80 1.7 SSW 19 26 10 14 1022.7 - 0.4
30/08:15pm 12.8 9.1 9.6 81 1.6 SSW 19 26 10 14 1022.7 - 0.4
30/08:00pm 12.9 9.6 9.7 81 1.6 SSW 17 22 9 12 1022.7 - 0.4
30/07:45pm 12.9 9.6 9.7 81 1.6 SSW 17 22 9 12 1022.6 - 0.4
30/07:30pm 13.1 10.3 9.9 81 1.7 SSW 15 22 8 12 1022.5 - 0.4
30/07:15pm 13.3 10.1 10.1 81 1.7 SSW 17 28 9 15 1022.4 - 0.4
30/07:00pm 13.2 9.7 10.2 82 1.6 SSW 19 26 10 14 1022.3 - 0.4
30/06:45pm 13.2 9.1 10.1 81 1.6 S 22 30 12 16 1022.3 - 0.4
30/06:30pm 13.3 9.8 10.1 81 1.7 SSW 19 30 10 16 1022.1 - 0.4
30/06:15pm 13.6 9.9 10.3 80 1.7 SSW 20 33 11 18 1022.2 - 0.4
30/06:00pm 13.7 10.3 10.5 81 1.7 SSW 19 30 10 16 1022.2 - 0.4
30/05:45pm 13.7 10.1 10.6 81 1.6 S 20 33 11 18 1022.1 - 0.4
30/05:30pm 13.7 10.1 10.7 82 1.6 S 20 33 11 18 1022.1 - 0.4
30/05:15pm 13.6 9.6 10.6 82 1.6 S 22 37 12 20 1022.1 - 0.4
30/05:00pm 13.8 9.8 10.6 81 1.7 S 22 33 12 18 1022.0 - 0.4
30/04:45pm 14.0 9.7 10.7 80 1.7 S 24 37 13 20 1022.0 - 0.4

Other Formats:

Comma delimited format used in spreadsheet applications
http://www.bom.gov.au/fwo/IDN60801/IDN60801.95757.axf

JavaScript Object Notation format (JSON) in row-major order
http://www.bom.gov.au/fwo/IDN60801/IDN60801.95757.json